Noxville, Texas
Current Conditions -  °F | °C
As of 10:15 PM on Sunday 25 Jan 2015 (Local Time) from KT82 Reporting Station
Clear Clear  
Wind Chill: 43°   Ceiling: Unl
Heat Index: 43°   Visibility: 10mi
Dew Point: 32°   Wind: 3mph
Humidity: 66%   Direction: 290°WNW
Pressure: 30.23"   Gusts: NA
Location:  30.3145°N, 99.2255°W
Report Text: KT82 260415Z AUTO 29003KT 10SM CLR 06/00 A3023 RMK AO2 T00590000
Loading
Personal Weather Stations






























Interactive Weather Map New forecast layout! Learn more

10-Day Weather Forecast

Advertisements
Track Severe Weather on mobile